Terminal Aerodrome Forecast
Issued by NWS

Home | Current Version | Previous Version | Text Only | Print | Product List | Glossary On
Versions: 1 2 3 4 5 6 7 8 9 10 11 12 13
000
FTAK31 PAFA 241139
TAFAFA
TAF
PAFA 241139Z 2412/2518 03008KT P6SM FEW080
     FM242000 03005KT P6SM SCT080 BKN250
     FM250000 01006KT P6SM -SHRA SCT050 BKN070
     FM251000 04005KT P6SM FEW050 BKN100=

USA.gov is the U.S. government's official web portal to all federal, state and local government web resources and services.